createdAt,value
2018-05-14T00:01:41.382Z,13.60
2018-05-14T00:04:08.827Z,14.40
2018-05-14T00:06:36.246Z,14.30
2018-05-14T00:09:04.490Z,14.30
2018-05-14T00:11:32.712Z,14.20
2018-05-14T00:14:00.130Z,14.20
2018-05-14T00:16:28.343Z,14.10
2018-05-14T00:18:55.766Z,14.10
2018-05-14T00:21:23.949Z,14.10
2018-05-14T00:23:52.260Z,14.10
2018-05-14T00:26:19.685Z,14.10
2018-05-14T00:28:48.030Z,14.00
2018-05-14T00:31:15.449Z,14.00
2018-05-14T00:33:42.876Z,14.00
2018-05-14T00:36:10.377Z,14.00
2018-05-14T00:38:38.558Z,13.90
2018-05-14T00:41:06.011Z,13.90
2018-05-14T00:43:33.426Z,13.90
2018-05-14T00:46:02.060Z,13.80
2018-05-14T00:48:29.742Z,13.90
2018-05-14T00:50:57.170Z,13.90
2018-05-14T00:53:24.585Z,13.80
2018-05-14T00:55:52.065Z,13.80
2018-05-14T00:58:19.486Z,13.70
2018-05-14T01:00:47.706Z,13.70
2018-05-14T01:03:15.139Z,13.70
2018-05-14T01:05:42.574Z,13.70
2018-05-14T01:08:10.851Z,13.70
2018-05-14T01:10:39.106Z,13.60
2018-05-14T01:13:06.535Z,13.60
2018-05-14T01:15:33.963Z,13.50
2018-05-14T01:18:01.443Z,13.50
2018-05-14T01:20:28.869Z,13.50
2018-05-14T01:22:57.054Z,13.60
2018-05-14T01:25:24.495Z,13.60
2018-05-14T01:27:52.682Z,13.50
2018-05-14T01:30:20.106Z,13.50
2018-05-14T01:32:49.091Z,13.50
2018-05-14T01:35:16.558Z,13.50
2018-05-14T01:37:45.095Z,13.40
2018-05-14T01:40:12.559Z,13.40
2018-05-14T01:42:39.961Z,13.30
2018-05-14T01:45:08.212Z,13.40
2018-05-14T01:47:35.746Z,13.30
2018-05-14T01:50:03.171Z,13.40
2018-05-14T01:52:31.354Z,13.30
2018-05-14T01:54:58.854Z,13.30
2018-05-14T01:57:26.269Z,13.30
2018-05-14T01:59:53.697Z,13.30
2018-05-14T02:02:21.123Z,13.30
2018-05-14T02:04:48.554Z,13.30
2018-05-14T02:07:15.997Z,13.20
2018-05-14T02:09:43.414Z,13.20
2018-05-14T02:12:10.838Z,13.30
2018-05-14T02:14:38.285Z,13.30
2018-05-14T02:17:05.710Z,13.30
2018-05-14T02:19:33.905Z,13.20
2018-05-14T02:22:01.340Z,13.20
2018-05-14T02:24:29.529Z,13.20
2018-05-14T02:26:57.030Z,13.20
2018-05-14T02:29:24.489Z,13.20
2018-05-14T02:31:51.887Z,13.20
2018-05-14T02:34:20.080Z,13.20
2018-05-14T02:36:47.543Z,13.20
2018-05-14T02:39:14.971Z,13.20
2018-05-14T02:41:43.173Z,13.10
2018-05-14T02:44:10.606Z,13.10
2018-05-14T02:46:38.815Z,13.00
2018-05-14T02:49:06.277Z,13.00
2018-05-14T02:51:33.702Z,13.20
2018-05-14T02:54:01.898Z,13.10
2018-05-14T02:56:29.322Z,13.10
2018-05-14T02:58:57.520Z,13.10
2018-05-14T03:01:25.099Z,13.10
2018-05-14T03:03:52.499Z,13.00
2018-05-14T03:06:20.690Z,13.10
2018-05-14T03:08:48.915Z,12.90
2018-05-14T03:11:16.350Z,13.00
2018-05-14T03:13:44.151Z,13.00
2018-05-14T03:16:11.605Z,13.00
2018-05-14T03:18:39.016Z,13.00
2018-05-14T03:21:06.502Z,12.90
2018-05-14T03:23:34.426Z,13.00
2018-05-14T03:26:03.552Z,13.00
2018-05-14T03:28:31.080Z,12.40
2018-05-14T03:30:58.498Z,13.00
2018-05-14T03:33:25.922Z,13.10
2018-05-14T03:35:53.623Z,13.00
2018-05-14T03:38:21.159Z,13.00
2018-05-14T03:40:48.634Z,13.10
2018-05-14T03:43:16.066Z,13.10
2018-05-14T03:45:43.510Z,13.00
2018-05-14T03:48:10.994Z,13.00
2018-05-14T03:50:38.447Z,13.00
2018-05-14T03:53:05.865Z,13.00
2018-05-14T03:55:34.058Z,13.00
2018-05-14T03:58:01.550Z,12.90
2018-05-14T04:00:41.024Z,13.00
2018-05-14T04:03:21.587Z,13.10
2018-05-14T04:06:01.710Z,13.00
2018-05-14T04:08:29.170Z,13.00
2018-05-14T04:10:56.715Z,13.10
2018-05-14T04:13:24.867Z,13.20
2018-05-14T04:15:52.298Z,13.30
2018-05-14T04:18:20.489Z,13.40
2018-05-14T04:20:48.675Z,13.40
2018-05-14T04:23:16.150Z,13.40
2018-05-14T04:25:43.577Z,13.50
2018-05-14T04:28:11.759Z,13.50
2018-05-14T04:30:39.550Z,13.50
2018-05-14T04:33:06.981Z,13.50
2018-05-14T04:35:34.462Z,13.70
2018-05-14T04:38:02.042Z,13.70
2018-05-14T04:40:29.469Z,13.70
2018-05-14T04:42:57.053Z,13.80
2018-05-14T04:45:24.487Z,13.80
2018-05-14T04:47:51.911Z,13.90
2018-05-14T04:50:20.120Z,14.10
2018-05-14T04:52:47.577Z,14.10
2018-05-14T04:55:15.046Z,14.20
2018-05-14T04:57:42.481Z,14.30
2018-05-14T05:00:09.941Z,14.60
2018-05-14T05:02:39.074Z,15.50
2018-05-14T05:05:06.494Z,15.50
2018-05-14T05:07:33.967Z,15.80
2018-05-14T05:10:01.664Z,16.00
2018-05-14T05:12:29.082Z,16.20
2018-05-14T05:14:56.506Z,16.30
2018-05-14T05:17:24.945Z,16.60
2018-05-14T05:19:53.234Z,16.90
2018-05-14T05:22:20.658Z,16.90
2018-05-14T05:24:48.090Z,16.90
2018-05-14T05:27:16.279Z,17.20
2018-05-14T05:29:43.710Z,17.20
2018-05-14T05:32:11.143Z,17.50
2018-05-14T05:34:38.590Z,17.80
2018-05-14T05:37:06.015Z,18.00
2018-05-14T05:39:33.461Z,18.30
2018-05-14T05:42:00.879Z,18.40
2018-05-14T05:44:28.298Z,18.30
2018-05-14T05:46:55.740Z,18.50
2018-05-14T05:49:23.159Z,18.90
2018-05-14T05:51:50.586Z,19.00
2018-05-14T05:54:18.198Z,19.30
2018-05-14T05:56:46.393Z,19.60
2018-05-14T05:59:13.891Z,19.60
2018-05-14T06:01:41.322Z,20.00
2018-05-14T06:04:08.749Z,20.00
2018-05-14T06:06:36.177Z,20.30
2018-05-14T06:09:03.607Z,20.50
2018-05-14T06:11:31.026Z,20.20
2018-05-14T06:13:58.486Z,20.60
2018-05-14T06:16:25.907Z,20.90
2018-05-14T06:18:54.851Z,21.40
2018-05-14T06:21:23.057Z,20.70
2018-05-14T06:23:50.484Z,20.70
2018-05-14T06:26:17.942Z,20.70
2018-05-14T06:28:45.401Z,21.30
2018-05-14T06:31:13.740Z,21.30
2018-05-14T06:33:41.938Z,21.50
2018-05-14T06:36:09.412Z,21.50
2018-05-14T06:38:36.842Z,21.30
2018-05-14T06:41:04.286Z,21.60
2018-05-14T06:43:32.478Z,21.90
2018-05-14T06:46:00.786Z,21.90
2018-05-14T06:48:28.215Z,22.40
2018-05-14T06:50:55.715Z,22.80
2018-05-14T06:53:23.135Z,22.80
2018-05-14T06:55:50.638Z,23.00
2018-05-14T06:58:18.080Z,23.70
2018-05-14T07:00:45.690Z,24.20
2018-05-14T07:03:13.402Z,24.30
2018-05-14T07:05:40.830Z,25.00
2018-05-14T07:08:08.430Z,25.00
2018-05-14T07:10:35.969Z,25.50
2018-05-14T07:13:03.300Z,25.70
2018-05-14T07:15:30.722Z,25.30
2018-05-14T07:17:58.166Z,25.30
2018-05-14T07:20:25.601Z,25.60
2018-05-14T07:22:53.794Z,26.20
2018-05-14T07:25:21.345Z,26.10
2018-05-14T07:27:48.811Z,26.50
2018-05-14T07:30:16.295Z,27.20
2018-05-14T07:32:43.689Z,27.60
2018-05-14T07:35:11.915Z,27.70
2018-05-14T07:37:40.243Z,26.90
2018-05-14T07:40:07.678Z,27.20
2018-05-14T07:42:35.875Z,27.30
2018-05-14T07:45:03.333Z,27.30
2018-05-14T07:47:30.835Z,28.30
2018-05-14T07:49:58.262Z,28.70
2018-05-14T07:52:25.757Z,28.90
2018-05-14T07:54:53.295Z,28.10
2018-05-14T07:57:20.966Z,27.90
2018-05-14T07:59:48.398Z,28.10
2018-05-14T08:02:15.845Z,29.10
2018-05-14T08:04:43.338Z,28.70
2018-05-14T08:07:10.767Z,28.90
2018-05-14T08:09:38.269Z,29.30
2018-05-14T08:12:05.700Z,27.90
2018-05-14T08:14:33.136Z,27.90
2018-05-14T08:17:00.590Z,28.30
2018-05-14T08:19:28.776Z,29.70
2018-05-14T08:21:56.202Z,29.60
2018-05-14T08:24:24.396Z,28.30
2018-05-14T08:26:52.582Z,28.30
2018-05-14T08:29:20.279Z,28.30
2018-05-14T08:31:47.772Z,28.50
2018-05-14T08:34:16.100Z,30.00
2018-05-14T08:36:43.589Z,30.00
2018-05-14T08:39:13.299Z,30.40
2018-05-14T08:41:40.739Z,31.20
2018-05-14T08:44:08.175Z,30.40
2018-05-14T08:46:35.698Z,31.40
2018-05-14T08:49:03.886Z,31.90
2018-05-14T08:51:33.252Z,31.60
2018-05-14T08:54:00.693Z,31.50
2018-05-14T08:56:28.114Z,31.50
2018-05-14T08:58:55.559Z,31.60
2018-05-14T09:01:23.746Z,31.30
2018-05-14T09:03:51.210Z,31.30
2018-05-14T09:06:18.645Z,31.90
2018-05-14T09:08:46.865Z,32.30
2018-05-14T09:11:14.494Z,32.30
2018-05-14T09:13:42.827Z,31.60
2018-05-14T09:16:10.264Z,31.50
2018-05-14T09:18:37.719Z,31.40
2018-05-14T09:21:05.160Z,31.90
2018-05-14T09:23:32.586Z,32.20
2018-05-14T09:26:01.066Z,33.10
2018-05-14T09:28:29.266Z,32.20
2018-05-14T09:30:56.706Z,32.10
2018-05-14T09:33:25.575Z,32.70
2018-05-14T09:35:53.002Z,32.70
2018-05-14T09:38:20.415Z,33.10
2018-05-14T09:40:48.634Z,33.20
2018-05-14T09:43:16.068Z,33.10
2018-05-14T09:45:43.523Z,32.10
2018-05-14T09:48:10.953Z,31.30
2018-05-14T09:50:39.234Z,30.80
2018-05-14T09:53:06.585Z,30.80
2018-05-14T09:55:34.820Z,32.10
2018-05-14T09:58:02.247Z,32.10
2018-05-14T10:00:29.667Z,32.10
2018-05-14T10:02:57.286Z,32.90
2018-05-14T10:05:24.709Z,32.50
2018-05-14T10:07:52.896Z,32.00
2018-05-14T10:10:20.330Z,32.00
2018-05-14T10:12:48.517Z,31.60
2018-05-14T10:15:16.791Z,32.90
2018-05-14T10:17:45.115Z,32.80
2018-05-14T10:20:13.514Z,31.50
2018-05-14T10:22:40.946Z,31.50
2018-05-14T10:25:08.434Z,32.10
2018-05-14T10:27:35.970Z,32.90
2018-05-14T10:30:03.440Z,33.00
2018-05-14T10:32:30.861Z,33.10
2018-05-14T10:34:58.287Z,33.30
2018-05-14T10:37:29.111Z,32.80
2018-05-14T10:39:58.067Z,31.30
2018-05-14T10:42:25.491Z,31.40
2018-05-14T10:44:53.690Z,30.80
2018-05-14T10:47:21.337Z,30.80
2018-05-14T10:49:48.754Z,31.10
2018-05-14T10:52:16.199Z,31.80
2018-05-14T10:54:43.648Z,31.90
2018-05-14T10:57:11.102Z,31.40
2018-05-14T10:59:39.082Z,31.70
2018-05-14T11:02:07.046Z,31.70
2018-05-14T11:04:34.595Z,30.90
2018-05-14T11:07:02.031Z,31.00
2018-05-14T11:09:29.497Z,31.10
2018-05-14T11:11:56.930Z,30.80
2018-05-14T11:14:25.126Z,30.80
2018-05-14T11:16:52.581Z,30.70
2018-05-14T11:19:20.002Z,31.50
2018-05-14T11:21:48.304Z,32.50
2018-05-14T11:24:16.503Z,31.90
2018-05-14T11:26:44.034Z,31.80
2018-05-14T11:29:11.654Z,32.50
2018-05-14T11:31:39.085Z,32.20
2018-05-14T11:34:06.519Z,32.40
2018-05-14T11:36:33.943Z,32.10
2018-05-14T11:39:01.479Z,32.80
2018-05-14T11:41:29.053Z,34.10
2018-05-14T11:43:56.502Z,32.20
2018-05-14T11:46:23.930Z,31.10
2018-05-14T11:48:51.363Z,30.90
2018-05-14T11:51:19.545Z,32.90
2018-05-14T11:53:47.266Z,32.80
2018-05-14T11:56:15.493Z,31.80
2018-05-14T11:58:43.175Z,31.80
2018-05-14T12:01:10.606Z,32.30
2018-05-14T12:03:38.040Z,32.20
2018-05-14T12:06:06.230Z,31.30
2018-05-14T12:08:33.663Z,31.30
2018-05-14T12:11:01.105Z,31.90
2018-05-14T12:13:28.533Z,31.70
2018-05-14T12:15:56.054Z,31.20
2018-05-14T12:18:23.451Z,31.70
2018-05-14T12:20:50.876Z,31.10
2018-05-14T12:23:18.316Z,31.30
2018-05-14T12:25:45.913Z,30.80
2018-05-14T12:28:13.484Z,30.20
2018-05-14T12:30:40.914Z,31.30
2018-05-14T12:33:08.435Z,30.70
2018-05-14T12:35:36.745Z,31.10
2018-05-14T12:38:04.863Z,31.10
2018-05-14T12:40:32.315Z,31.40
2018-05-14T12:42:59.905Z,30.50
2018-05-14T12:45:27.336Z,31.20
2018-05-14T12:47:54.757Z,31.40
2018-05-14T12:50:22.207Z,30.80
2018-05-14T12:52:50.398Z,30.50
2018-05-14T12:55:17.992Z,30.50
2018-05-14T12:57:45.422Z,30.90
2018-05-14T13:00:12.920Z,29.90
2018-05-14T13:02:40.354Z,29.30
2018-05-14T13:05:07.778Z,29.60
2018-05-14T13:07:35.209Z,29.00
2018-05-14T13:10:02.770Z,28.90
2018-05-14T13:12:30.198Z,29.90
2018-05-14T13:14:57.818Z,29.60
2018-05-14T13:17:25.252Z,29.60
2018-05-14T13:19:52.801Z,29.60
2018-05-14T13:22:20.503Z,29.50
2018-05-14T13:24:47.958Z,29.80
2018-05-14T13:27:16.516Z,29.90
2018-05-14T13:29:45.724Z,29.30
2018-05-14T13:32:13.915Z,29.10
2018-05-14T13:34:41.423Z,29.00
2018-05-14T13:37:08.838Z,28.50
2018-05-14T13:39:36.296Z,28.30
2018-05-14T13:42:03.733Z,28.50
2018-05-14T13:44:31.936Z,28.20
2018-05-14T13:47:00.131Z,28.40
2018-05-14T13:49:27.561Z,28.40
2018-05-14T13:51:55.006Z,27.90
2018-05-14T13:54:23.189Z,27.80
2018-05-14T13:56:50.686Z,27.70
2018-05-14T13:59:18.117Z,27.90
2018-05-14T14:01:45.620Z,27.80
2018-05-14T14:04:13.049Z,27.90
2018-05-14T14:06:40.508Z,28.00
2018-05-14T14:09:07.993Z,27.70
2018-05-14T14:11:36.195Z,27.80
2018-05-14T14:14:04.390Z,27.50
2018-05-14T14:16:32.041Z,27.50
2018-05-14T14:19:00.228Z,27.70
2018-05-14T14:21:27.913Z,27.70
2018-05-14T14:23:55.449Z,27.80
2018-05-14T14:26:22.798Z,27.60
2018-05-14T14:28:50.987Z,27.10
2018-05-14T14:31:19.283Z,26.90
2018-05-14T14:33:46.662Z,26.90
2018-05-14T14:36:14.756Z,26.80
2018-05-14T14:38:42.188Z,26.90
2018-05-14T14:41:09.610Z,27.00
2018-05-14T14:43:37.042Z,27.10
2018-05-14T14:46:05.259Z,26.50
2018-05-14T14:48:33.674Z,26.50
2018-05-14T14:51:01.109Z,26.40
2018-05-14T14:53:28.573Z,26.40
2018-05-14T14:55:55.994Z,26.50
2018-05-14T14:58:23.525Z,26.50
2018-05-14T15:00:50.929Z,26.10
2018-05-14T15:03:18.396Z,26.10
2018-05-14T15:05:45.810Z,26.00
2018-05-14T15:08:14.340Z,26.10
2018-05-14T15:10:41.831Z,26.10
2018-05-14T15:13:09.253Z,26.20
2018-05-14T15:15:36.698Z,26.10
2018-05-14T15:18:04.123Z,25.90
2018-05-14T15:20:32.316Z,25.90
2018-05-14T15:22:59.906Z,25.90
2018-05-14T15:25:27.374Z,25.90
2018-05-14T15:27:54.808Z,26.20
2018-05-14T15:30:22.249Z,26.20
2018-05-14T15:32:49.842Z,26.20
2018-05-14T15:35:17.264Z,26.00
2018-05-14T15:37:45.154Z,25.80
2018-05-14T15:40:12.581Z,25.70
2018-05-14T15:42:40.895Z,25.70
2018-05-14T15:45:08.338Z,25.70
2018-05-14T15:47:35.812Z,25.80
2018-05-14T15:50:03.336Z,25.70
2018-05-14T15:52:31.643Z,25.60
2018-05-14T15:54:59.074Z,25.60
2018-05-14T15:57:26.493Z,25.40
2018-05-14T15:59:55.483Z,25.20
2018-05-14T16:02:23.446Z,25.20
2018-05-14T16:04:50.875Z,25.00
2018-05-14T16:07:18.567Z,25.10
2018-05-14T16:09:46.051Z,25.00
2018-05-14T16:12:14.272Z,24.70
2018-05-14T16:14:41.724Z,24.70
2018-05-14T16:17:09.130Z,24.70
2018-05-14T16:19:36.554Z,24.60
2018-05-14T16:22:04.010Z,24.40
2018-05-14T16:24:31.434Z,24.20
2018-05-14T16:26:59.682Z,24.00
2018-05-14T16:29:27.123Z,24.00
2018-05-14T16:31:54.546Z,23.90
2018-05-14T16:34:22.035Z,23.80
2018-05-14T16:36:49.463Z,23.80
2018-05-14T16:39:16.890Z,23.90
2018-05-14T16:41:45.136Z,23.60
2018-05-14T16:44:12.570Z,23.60
2018-05-14T16:46:39.997Z,23.70
2018-05-14T16:49:07.424Z,23.60
2018-05-14T16:51:34.860Z,23.50
2018-05-14T16:54:02.322Z,23.50
2018-05-14T16:56:29.767Z,23.60
2018-05-14T16:58:57.181Z,23.70
2018-05-14T17:01:24.611Z,23.70
2018-05-14T17:03:52.822Z,23.40
2018-05-14T17:06:20.293Z,23.30
2018-05-14T17:08:47.731Z,23.20
2018-05-14T17:11:15.234Z,23.00
2018-05-14T17:13:42.728Z,22.90
2018-05-14T17:16:10.934Z,22.70
2018-05-14T17:18:38.389Z,22.70
2018-05-14T17:21:05.997Z,22.50
2018-05-14T17:23:33.446Z,22.50
2018-05-14T17:26:00.920Z,22.50
2018-05-14T17:28:28.343Z,22.40
2018-05-14T17:30:55.791Z,22.20
2018-05-14T17:33:23.216Z,22.10
2018-05-14T17:35:52.400Z,21.90
2018-05-14T17:38:19.993Z,21.90
2018-05-14T17:40:47.442Z,21.90
2018-05-14T17:43:15.626Z,21.70
2018-05-14T17:45:43.051Z,21.70
2018-05-14T17:48:10.707Z,21.60
2018-05-14T17:50:38.270Z,21.50
2018-05-14T17:53:05.723Z,21.40
2018-05-14T17:55:33.187Z,21.30
2018-05-14T17:58:00.618Z,21.30
2018-05-14T18:00:28.055Z,21.20
2018-05-14T18:02:55.495Z,21.10
2018-05-14T18:05:23.219Z,21.10
2018-05-14T18:07:50.643Z,21.00
2018-05-14T18:10:18.208Z,20.90
2018-05-14T18:12:45.654Z,20.90
2018-05-14T18:15:13.423Z,20.80
2018-05-14T18:17:41.005Z,20.80
2018-05-14T18:20:15.027Z,20.70
2018-05-14T18:22:42.466Z,20.70
2018-05-14T18:25:15.702Z,20.60
2018-05-14T18:27:49.739Z,20.60
2018-05-14T18:30:23.818Z,20.50
2018-05-14T18:32:54.222Z,20.50
2018-05-14T18:35:21.868Z,20.40
2018-05-14T18:37:49.394Z,20.30
2018-05-14T18:40:16.831Z,20.30
2018-05-14T18:42:45.052Z,20.20
2018-05-14T18:45:12.526Z,20.20
2018-05-14T18:47:39.988Z,20.10
2018-05-14T18:50:07.442Z,20.10
2018-05-14T18:52:34.854Z,20.00
2018-05-14T18:55:02.302Z,19.90
2018-05-14T18:57:30.523Z,19.80
2018-05-14T18:59:57.954Z,19.70
2018-05-14T19:02:25.451Z,19.70
2018-05-14T19:04:53.008Z,19.60
2018-05-14T19:07:20.677Z,19.50
2018-05-14T19:09:48.404Z,19.40
2018-05-14T19:12:15.835Z,19.30
2018-05-14T19:14:49.662Z,19.10
2018-05-14T19:17:22.725Z,19.10
2018-05-14T19:19:50.350Z,19.00
2018-05-14T19:22:23.567Z,18.90
2018-05-14T19:24:51.011Z,18.80
2018-05-14T19:27:19.091Z,18.80
2018-05-14T19:29:46.543Z,18.70
2018-05-14T19:32:14.299Z,18.60
2018-05-14T19:34:47.424Z,18.60
2018-05-14T19:37:15.014Z,18.50
2018-05-14T19:39:48.095Z,18.40
2018-05-14T19:42:15.523Z,18.40
2018-05-14T19:44:44.450Z,18.20
2018-05-14T19:47:12.066Z,18.20
2018-05-14T19:49:39.701Z,18.10
2018-05-14T19:52:07.130Z,18.00
2018-05-14T19:54:34.588Z,17.90
2018-05-14T19:57:02.019Z,17.90
2018-05-14T19:59:30.211Z,17.70
2018-05-14T20:01:58.402Z,17.60
2018-05-14T20:04:25.833Z,17.60
2018-05-14T20:06:55.962Z,17.50
2018-05-14T20:09:24.269Z,17.50
2018-05-14T20:11:51.726Z,17.40
2018-05-14T20:14:19.194Z,17.40
2018-05-14T20:16:46.622Z,17.40
2018-05-14T20:19:14.050Z,17.30
2018-05-14T20:21:41.486Z,17.20
2018-05-14T20:24:08.939Z,17.20
2018-05-14T20:26:36.359Z,17.10
2018-05-14T20:29:03.803Z,17.20
2018-05-14T20:31:31.978Z,17.10
2018-05-14T20:33:59.471Z,17.10
2018-05-14T20:36:26.931Z,17.00
2018-05-14T20:38:54.358Z,16.90
2018-05-14T20:41:21.850Z,16.90
2018-05-14T20:43:49.622Z,16.90
2018-05-14T20:46:17.047Z,16.80
2018-05-14T20:48:44.490Z,16.70
2018-05-14T20:51:12.670Z,16.70
2018-05-14T20:53:40.862Z,16.70
2018-05-14T20:56:08.309Z,16.70
2018-05-14T20:58:35.791Z,16.60
2018-05-14T21:01:03.220Z,16.60
2018-05-14T21:03:30.873Z,16.60
2018-05-14T21:05:59.086Z,16.50
2018-05-14T21:08:26.632Z,16.50
2018-05-14T21:10:54.049Z,16.40
2018-05-14T21:13:22.274Z,16.30
2018-05-14T21:15:49.706Z,16.30
2018-05-14T21:18:17.207Z,16.30
2018-05-14T21:20:44.638Z,16.30
2018-05-14T21:23:12.071Z,16.20
2018-05-14T21:25:39.865Z,16.20
2018-05-14T21:28:07.287Z,16.20
2018-05-14T21:30:35.474Z,16.00
2018-05-14T21:33:02.942Z,16.00
2018-05-14T21:35:30.362Z,16.10
2018-05-14T21:37:57.778Z,16.10
2018-05-14T21:40:25.210Z,16.00
2018-05-14T21:42:52.850Z,16.00
2018-05-14T21:45:21.064Z,15.80
2018-05-14T21:47:48.486Z,15.80
2018-05-14T21:50:16.752Z,15.80
2018-05-14T21:52:44.247Z,15.70
2018-05-14T21:55:11.675Z,15.80
2018-05-14T21:57:39.895Z,15.70
2018-05-14T22:00:07.323Z,15.70
2018-05-14T22:02:34.772Z,15.70
2018-05-14T22:05:02.962Z,15.70
2018-05-14T22:07:30.387Z,15.60
2018-05-14T22:09:58.855Z,15.60
2018-05-14T22:12:27.814Z,15.50
2018-05-14T22:14:55.245Z,15.50
2018-05-14T22:17:22.726Z,15.50
2018-05-14T22:19:50.587Z,15.50
2018-05-14T22:22:18.111Z,15.50
2018-05-14T22:24:46.431Z,15.30
2018-05-14T22:27:13.854Z,15.30
2018-05-14T22:29:41.383Z,15.30
2018-05-14T22:32:08.836Z,15.20
2018-05-14T22:34:36.362Z,15.20
2018-05-14T22:37:03.782Z,15.20
2018-05-14T22:39:32.109Z,15.20
2018-05-14T22:41:59.530Z,15.20
2018-05-14T22:44:26.966Z,15.10
2018-05-14T22:46:55.285Z,15.10
2018-05-14T22:49:22.718Z,15.10
2018-05-14T22:51:50.142Z,15.10
2018-05-14T22:54:30.407Z,15.00
2018-05-14T22:56:58.602Z,15.00
2018-05-14T22:59:26.785Z,15.00
2018-05-14T23:01:54.218Z,15.00
2018-05-14T23:04:22.422Z,15.00
2018-05-14T23:06:49.847Z,14.90
2018-05-14T23:09:18.074Z,14.80
2018-05-14T23:11:45.491Z,14.80
2018-05-14T23:14:13.832Z,14.70
2018-05-14T23:16:41.494Z,14.70
2018-05-14T23:19:08.911Z,14.70
2018-05-14T23:21:36.349Z,14.70
2018-05-14T23:24:04.555Z,14.70
2018-05-14T23:26:32.021Z,14.70
2018-05-14T23:28:59.442Z,14.60
2018-05-14T23:31:27.645Z,14.60
2018-05-14T23:33:55.094Z,14.60
2018-05-14T23:36:22.649Z,14.60
2018-05-14T23:38:50.071Z,14.60
2018-05-14T23:41:18.605Z,14.50
2018-05-14T23:43:46.054Z,14.50
2018-05-14T23:46:13.503Z,14.50
2018-05-14T23:48:40.959Z,14.40
2018-05-14T23:51:08.387Z,14.40
2018-05-14T23:53:36.582Z,14.30
2018-05-14T23:56:04.786Z,14.30
2018-05-14T23:58:32.226Z,14.30
